sensor_id;sensor_type;location;lat;lon;timestamp;P1;durP1;ratioP1;P2;durP2;ratioP2
9506;SDS011;4791;47.528;9.372;2023-02-01T00:08:51;6.93;;;3.88;;
9506;SDS011;4791;47.528;9.372;2023-02-01T00:23:52;5.05;;;3.85;;
9506;SDS011;4791;47.528;9.372;2023-02-01T00:39:00;7.03;;;4.22;;
9506;SDS011;4791;47.528;9.372;2023-02-01T00:54:00;5.78;;;4.15;;
9506;SDS011;4791;47.528;9.372;2023-02-01T01:09:02;7.32;;;4.28;;
9506;SDS011;4791;47.528;9.372;2023-02-01T01:24:04;4.57;;;3.88;;
9506;SDS011;4791;47.528;9.372;2023-02-01T01:39:08;5.15;;;3.58;;
9506;SDS011;4791;47.528;9.372;2023-02-01T01:54:11;4.82;;;3.97;;
9506;SDS011;4791;47.528;9.372;2023-02-01T02:09:12;5.70;;;3.72;;
9506;SDS011;4791;47.528;9.372;2023-02-01T02:39:20;6.97;;;4.72;;
9506;SDS011;4791;47.528;9.372;2023-02-01T02:54:30;5.38;;;3.65;;
9506;SDS011;4791;47.528;9.372;2023-02-01T03:09:54;5.13;;;4.20;;
9506;SDS011;4791;47.528;9.372;2023-02-01T03:25:17;6.00;;;3.88;;
9506;SDS011;4791;47.528;9.372;2023-02-01T03:40:22;6.43;;;3.70;;
9506;SDS011;4791;47.528;9.372;2023-02-01T03:55:23;6.57;;;4.45;;
9506;SDS011;4791;47.528;9.372;2023-02-01T04:10:30;6.13;;;4.03;;
9506;SDS011;4791;47.528;9.372;2023-02-01T04:25:30;5.38;;;3.50;;
9506;SDS011;4791;47.528;9.372;2023-02-01T04:40:31;6.10;;;3.33;;
9506;SDS011;4791;47.528;9.372;2023-02-01T04:55:31;5.05;;;3.60;;
9506;SDS011;4791;47.528;9.372;2023-02-01T05:10:34;4.40;;;3.00;;
9506;SDS011;4791;47.528;9.372;2023-02-01T05:25:37;6.40;;;4.75;;
9506;SDS011;4791;47.528;9.372;2023-02-01T05:40:37;4.18;;;3.72;;
9506;SDS011;4791;47.528;9.372;2023-02-01T05:55:39;7.50;;;4.20;;
9506;SDS011;4791;47.528;9.372;2023-02-01T06:10:43;4.72;;;4.00;;
9506;SDS011;4791;47.528;9.372;2023-02-01T06:25:44;7.05;;;4.43;;
9506;SDS011;4791;47.528;9.372;2023-02-01T06:40:51;6.80;;;4.70;;
9506;SDS011;4791;47.528;9.372;2023-02-01T06:55:59;6.03;;;4.43;;
9506;SDS011;4791;47.528;9.372;2023-02-01T07:11:01;7.10;;;4.47;;
9506;SDS011;4791;47.528;9.372;2023-02-01T07:26:06;6.88;;;5.38;;
9506;SDS011;4791;47.528;9.372;2023-02-01T07:41:10;6.93;;;4.57;;
9506;SDS011;4791;47.528;9.372;2023-02-01T07:56:14;5.50;;;4.00;;
9506;SDS011;4791;47.528;9.372;2023-02-01T08:11:18;6.05;;;4.22;;
9506;SDS011;4791;47.528;9.372;2023-02-01T08:26:21;4.95;;;3.83;;
9506;SDS011;4791;47.528;9.372;2023-02-01T08:41:28;7.18;;;4.25;;
9506;SDS011;4791;47.528;9.372;2023-02-01T09:11:29;5.22;;;4.15;;
9506;SDS011;4791;47.528;9.372;2023-02-01T09:26:34;5.70;;;3.97;;
9506;SDS011;4791;47.528;9.372;2023-02-01T09:41:41;5.05;;;3.55;;
9506;SDS011;4791;47.528;9.372;2023-02-01T10:12:28;5.03;;;3.55;;
9506;SDS011;4791;47.528;9.372;2023-02-01T10:27:48;3.33;;;2.45;;
9506;SDS011;4791;47.528;9.372;2023-02-01T10:42:51;4.15;;;2.90;;
9506;SDS011;4791;47.528;9.372;2023-02-01T10:58:05;3.58;;;2.50;;
9506;SDS011;4791;47.528;9.372;2023-02-01T11:13:30;4.05;;;2.42;;
9506;SDS011;4791;47.528;9.372;2023-02-01T11:28:33;3.38;;;2.28;;
9506;SDS011;4791;47.528;9.372;2023-02-01T12:29:28;3.05;;;1.48;;
9506;SDS011;4791;47.528;9.372;2023-02-01T12:44:59;2.35;;;1.63;;
9506;SDS011;4791;47.528;9.372;2023-02-01T13:15:12;3.75;;;1.50;;
9506;SDS011;4791;47.528;9.372;2023-02-01T13:30:19;3.08;;;1.38;;
9506;SDS011;4791;47.528;9.372;2023-02-01T13:45:27;4.03;;;1.80;;
9506;SDS011;4791;47.528;9.372;2023-02-01T14:00:35;4.30;;;1.60;;
9506;SDS011;4791;47.528;9.372;2023-02-01T14:15:37;4.28;;;2.67;;
9506;SDS011;4791;47.528;9.372;2023-02-01T14:30:40;3.40;;;2.13;;
9506;SDS011;4791;47.528;9.372;2023-02-01T14:45:48;4.47;;;1.88;;
9506;SDS011;4791;47.528;9.372;2023-02-01T15:00:52;4.32;;;2.00;;
9506;SDS011;4791;47.528;9.372;2023-02-01T15:16:11;5.00;;;1.90;;
9506;SDS011;4791;47.528;9.372;2023-02-01T15:31:30;4.32;;;1.45;;
9506;SDS011;4791;47.528;9.372;2023-02-01T16:01:39;5.30;;;1.80;;
9506;SDS011;4791;47.528;9.372;2023-02-01T16:16:42;5.25;;;1.83;;
9506;SDS011;4791;47.528;9.372;2023-02-01T16:31:42;4.95;;;1.95;;
9506;SDS011;4791;47.528;9.372;2023-02-01T16:46:44;3.47;;;1.48;;
9506;SDS011;4791;47.528;9.372;2023-02-01T17:01:45;4.85;;;1.90;;
9506;SDS011;4791;47.528;9.372;2023-02-01T17:16:46;5.13;;;1.98;;
9506;SDS011;4791;47.528;9.372;2023-02-01T17:31:51;2.97;;;1.50;;
9506;SDS011;4791;47.528;9.372;2023-02-01T17:46:53;3.58;;;1.60;;
9506;SDS011;4791;47.528;9.372;2023-02-01T18:02:00;4.13;;;2.35;;
9506;SDS011;4791;47.528;9.372;2023-02-01T18:17:03;4.00;;;1.67;;
9506;SDS011;4791;47.528;9.372;2023-02-01T18:32:04;5.78;;;1.80;;
9506;SDS011;4791;47.528;9.372;2023-02-01T18:47:05;6.63;;;1.87;;
9506;SDS011;4791;47.528;9.372;2023-02-01T19:02:07;4.38;;;1.75;;
9506;SDS011;4791;47.528;9.372;2023-02-01T19:17:11;5.57;;;1.88;;
9506;SDS011;4791;47.528;9.372;2023-02-01T19:32:13;3.10;;;1.55;;
9506;SDS011;4791;47.528;9.372;2023-02-01T19:47:14;5.15;;;1.80;;
9506;SDS011;4791;47.528;9.372;2023-02-01T20:02:19;3.58;;;1.40;;
9506;SDS011;4791;47.528;9.372;2023-02-01T20:17:23;5.38;;;1.60;;
9506;SDS011;4791;47.528;9.372;2023-02-01T20:32:23;4.25;;;1.60;;
9506;SDS011;4791;47.528;9.372;2023-02-01T20:47:26;3.78;;;1.63;;
9506;SDS011;4791;47.528;9.372;2023-02-01T21:02:27;5.53;;;1.77;;
9506;SDS011;4791;47.528;9.372;2023-02-01T21:17:30;4.47;;;1.95;;
9506;SDS011;4791;47.528;9.372;2023-02-01T21:32:39;5.57;;;1.75;;
9506;SDS011;4791;47.528;9.372;2023-02-01T21:47:39;2.47;;;1.30;;
9506;SDS011;4791;47.528;9.372;2023-02-01T22:02:42;1.90;;;1.20;;
9506;SDS011;4791;47.528;9.372;2023-02-01T22:17:42;4.50;;;1.30;;
9506;SDS011;4791;47.528;9.372;2023-02-01T22:32:43;4.57;;;1.83;;
9506;SDS011;4791;47.528;9.372;2023-02-01T22:47:44;5.15;;;1.60;;
9506;SDS011;4791;47.528;9.372;2023-02-01T23:02:47;3.38;;;1.27;;
9506;SDS011;4791;47.528;9.372;2023-02-01T23:17:47;4.80;;;1.15;;
9506;SDS011;4791;47.528;9.372;2023-02-01T23:32:48;6.22;;;1.30;;
9506;SDS011;4791;47.528;9.372;2023-02-01T23:47:48;5.03;;;1.45;;
